sensor_id;sensor_type;location;lat;lon;timestamp;P1;durP1;ratioP1;P2;durP2;ratioP2
65871;SDS011;52653;50.080;21.992;2023-07-20T00:00:54;13.90;;;10.80;;
65871;SDS011;52653;50.080;21.992;2023-07-20T00:03:47;16.30;;;10.50;;
65871;SDS011;52653;50.080;21.992;2023-07-20T00:06:46;12.40;;;10.20;;
65871;SDS011;52653;50.080;21.992;2023-07-20T00:09:38;14.00;;;10.80;;
65871;SDS011;52653;50.080;21.992;2023-07-20T00:12:30;11.50;;;9.90;;
65871;SDS011;52653;50.080;21.992;2023-07-20T00:15:06;13.60;;;10.00;;
65871;SDS011;52653;50.080;21.992;2023-07-20T00:18:00;12.90;;;10.40;;
65871;SDS011;52653;50.080;21.992;2023-07-20T00:20:46;13.40;;;10.60;;
65871;SDS011;52653;50.080;21.992;2023-07-20T00:23:40;12.30;;;9.80;;
65871;SDS011;52653;50.080;21.992;2023-07-20T00:26:32;12.80;;;10.40;;
65871;SDS011;52653;50.080;21.992;2023-07-20T00:29:25;14.10;;;10.40;;
65871;SDS011;52653;50.080;21.992;2023-07-20T00:31:58;12.50;;;9.60;;
65871;SDS011;52653;50.080;21.992;2023-07-20T00:34:54;13.50;;;11.10;;
65871;SDS011;52653;50.080;21.992;2023-07-20T00:37:47;10.90;;;9.40;;
65871;SDS011;52653;50.080;21.992;2023-07-20T00:40:40;13.10;;;9.20;;
65871;SDS011;52653;50.080;21.992;2023-07-20T00:43:23;10.50;;;8.90;;
65871;SDS011;52653;50.080;21.992;2023-07-20T00:46:16;9.90;;;8.30;;
65871;SDS011;52653;50.080;21.992;2023-07-20T00:49:02;12.50;;;8.50;;
65871;SDS011;52653;50.080;21.992;2023-07-20T00:51:44;10.40;;;8.80;;
65871;SDS011;52653;50.080;21.992;2023-07-20T00:54:30;11.10;;;8.40;;
65871;SDS011;52653;50.080;21.992;2023-07-20T00:57:21;10.90;;;8.70;;
65871;SDS011;52653;50.080;21.992;2023-07-20T01:00:04;10.40;;;8.00;;
65871;SDS011;52653;50.080;21.992;2023-07-20T01:02:58;12.00;;;8.30;;
65871;SDS011;52653;50.080;21.992;2023-07-20T01:05:47;10.50;;;7.80;;
65871;SDS011;52653;50.080;21.992;2023-07-20T01:08:50;10.00;;;7.80;;
65871;SDS011;52653;50.080;21.992;2023-07-20T01:11:53;9.40;;;7.40;;
65871;SDS011;52653;50.080;21.992;2023-07-20T01:14:44;9.50;;;7.20;;
65871;SDS011;52653;50.080;21.992;2023-07-20T01:17:28;10.50;;;7.70;;
65871;SDS011;52653;50.080;21.992;2023-07-20T01:20:21;8.90;;;6.80;;
65871;SDS011;52653;50.080;21.992;2023-07-20T01:23:31;10.20;;;7.40;;
65871;SDS011;52653;50.080;21.992;2023-07-20T01:26:52;10.50;;;7.30;;
65871;SDS011;52653;50.080;21.992;2023-07-20T01:30:08;8.90;;;7.40;;
65871;SDS011;52653;50.080;21.992;2023-07-20T01:33:15;9.90;;;7.80;;
65871;SDS011;52653;50.080;21.992;2023-07-20T01:36:10;11.20;;;7.30;;
65871;SDS011;52653;50.080;21.992;2023-07-20T01:38:56;8.90;;;7.20;;
65871;SDS011;52653;50.080;21.992;2023-07-20T01:41:50;11.00;;;7.60;;
65871;SDS011;52653;50.080;21.992;2023-07-20T01:44:23;9.80;;;7.30;;
65871;SDS011;52653;50.080;21.992;2023-07-20T01:47:16;10.30;;;7.10;;
65871;SDS011;52653;50.080;21.992;2023-07-20T01:49:52;9.10;;;7.30;;
65871;SDS011;52653;50.080;21.992;2023-07-20T01:52:35;9.20;;;7.10;;
65871;SDS011;52653;50.080;21.992;2023-07-20T01:55:15;10.60;;;6.70;;
65871;SDS011;52653;50.080;21.992;2023-07-20T01:58:08;9.40;;;7.00;;
65871;SDS011;52653;50.080;21.992;2023-07-20T02:00:54;9.50;;;6.80;;
65871;SDS011;52653;50.080;21.992;2023-07-20T02:03:29;10.30;;;7.10;;
65871;SDS011;52653;50.080;21.992;2023-07-20T02:06:22;9.00;;;6.30;;
65871;SDS011;52653;50.080;21.992;2023-07-20T02:09:05;9.50;;;6.20;;
65871;SDS011;52653;50.080;21.992;2023-07-20T02:11:58;9.00;;;5.80;;
65871;SDS011;52653;50.080;21.992;2023-07-20T02:14:51;8.80;;;6.40;;
65871;SDS011;52653;50.080;21.992;2023-07-20T02:17:38;9.60;;;6.60;;
65871;SDS011;52653;50.080;21.992;2023-07-20T02:20:32;8.70;;;6.40;;
65871;SDS011;52653;50.080;21.992;2023-07-20T02:23:26;9.20;;;6.00;;
65871;SDS011;52653;50.080;21.992;2023-07-20T02:26:18;8.10;;;5.90;;
65871;SDS011;52653;50.080;21.992;2023-07-20T02:29:12;9.00;;;6.00;;
65871;SDS011;52653;50.080;21.992;2023-07-20T02:32:06;8.70;;;6.00;;
65871;SDS011;52653;50.080;21.992;2023-07-20T02:34:53;9.30;;;6.80;;
65871;SDS011;52653;50.080;21.992;2023-07-20T02:37:48;9.70;;;6.40;;
65871;SDS011;52653;50.080;21.992;2023-07-20T02:40:41;9.40;;;6.30;;
65871;SDS011;52653;50.080;21.992;2023-07-20T02:43:35;8.30;;;6.10;;
65871;SDS011;52653;50.080;21.992;2023-07-20T02:46:21;8.90;;;5.80;;
65871;SDS011;52653;50.080;21.992;2023-07-20T02:49:07;10.40;;;6.60;;
65871;SDS011;52653;50.080;21.992;2023-07-20T02:52:01;9.30;;;6.10;;
65871;SDS011;52653;50.080;21.992;2023-07-20T02:54:55;8.50;;;6.00;;
65871;SDS011;52653;50.080;21.992;2023-07-20T02:57:48;8.30;;;5.80;;
65871;SDS011;52653;50.080;21.992;2023-07-20T03:00:41;9.00;;;6.60;;
65871;SDS011;52653;50.080;21.992;2023-07-20T03:03:34;9.50;;;6.00;;
65871;SDS011;52653;50.080;21.992;2023-07-20T03:06:21;9.00;;;6.60;;
65871;SDS011;52653;50.080;21.992;2023-07-20T03:09:14;7.20;;;5.70;;
65871;SDS011;52653;50.080;21.992;2023-07-20T03:12:00;9.50;;;6.40;;
65871;SDS011;52653;50.080;21.992;2023-07-20T03:14:47;8.50;;;5.90;;
65871;SDS011;52653;50.080;21.992;2023-07-20T03:17:40;8.90;;;6.60;;
65871;SDS011;52653;50.080;21.992;2023-07-20T03:20:34;9.00;;;6.40;;
65871;SDS011;52653;50.080;21.992;2023-07-20T03:23:27;10.20;;;6.50;;
65871;SDS011;52653;50.080;21.992;2023-07-20T03:26:20;8.70;;;6.30;;
65871;SDS011;52653;50.080;21.992;2023-07-20T03:29:14;10.50;;;6.40;;
65871;SDS011;52653;50.080;21.992;2023-07-20T03:31:52;10.00;;;6.60;;
65871;SDS011;52653;50.080;21.992;2023-07-20T03:34:44;10.50;;;6.30;;
65871;SDS011;52653;50.080;21.992;2023-07-20T03:37:30;8.80;;;6.30;;
65871;SDS011;52653;50.080;21.992;2023-07-20T03:40:24;8.70;;;5.90;;
65871;SDS011;52653;50.080;21.992;2023-07-20T03:43:17;10.00;;;6.30;;
65871;SDS011;52653;50.080;21.992;2023-07-20T03:46:10;9.60;;;6.40;;
65871;SDS011;52653;50.080;21.992;2023-07-20T03:49:04;9.00;;;6.40;;
65871;SDS011;52653;50.080;21.992;2023-07-20T03:51:46;10.20;;;6.20;;
65871;SDS011;52653;50.080;21.992;2023-07-20T03:54:18;8.80;;;5.80;;
65871;SDS011;52653;50.080;21.992;2023-07-20T03:57:11;10.20;;;6.50;;
65871;SDS011;52653;50.080;21.992;2023-07-20T04:00:05;8.80;;;6.40;;
65871;SDS011;52653;50.080;21.992;2023-07-20T04:02:42;9.90;;;6.70;;
65871;SDS011;52653;50.080;21.992;2023-07-20T04:05:35;8.50;;;5.90;;
65871;SDS011;52653;50.080;21.992;2023-07-20T04:08:17;9.50;;;6.10;;
65871;SDS011;52653;50.080;21.992;2023-07-20T04:11:10;10.90;;;6.60;;
65871;SDS011;52653;50.080;21.992;2023-07-20T04:13:56;8.30;;;5.70;;
65871;SDS011;52653;50.080;21.992;2023-07-20T04:16:49;8.70;;;5.80;;
65871;SDS011;52653;50.080;21.992;2023-07-20T04:19:27;7.80;;;5.70;;
65871;SDS011;52653;50.080;21.992;2023-07-20T04:22:09;9.80;;;5.90;;
65871;SDS011;52653;50.080;21.992;2023-07-20T04:24:45;8.60;;;5.90;;
65871;SDS011;52653;50.080;21.992;2023-07-20T04:27:23;10.20;;;6.30;;
65871;SDS011;52653;50.080;21.992;2023-07-20T04:30:16;9.60;;;6.50;;
65871;SDS011;52653;50.080;21.992;2023-07-20T04:33:12;11.10;;;7.00;;
65871;SDS011;52653;50.080;21.992;2023-07-20T04:35:55;9.90;;;6.50;;
65871;SDS011;52653;50.080;21.992;2023-07-20T04:38:49;10.80;;;6.40;;
65871;SDS011;52653;50.080;21.992;2023-07-20T04:41:24;10.40;;;6.30;;
65871;SDS011;52653;50.080;21.992;2023-07-20T04:44:17;9.30;;;6.60;;
65871;SDS011;52653;50.080;21.992;2023-07-20T04:47:09;10.10;;;6.20;;
65871;SDS011;52653;50.080;21.992;2023-07-20T04:49:56;11.20;;;6.60;;
65871;SDS011;52653;50.080;21.992;2023-07-20T04:52:48;9.90;;;6.70;;
65871;SDS011;52653;50.080;21.992;2023-07-20T04:55:46;8.70;;;6.20;;
65871;SDS011;52653;50.080;21.992;2023-07-20T04:58:42;10.40;;;6.40;;
65871;SDS011;52653;50.080;21.992;2023-07-20T05:01:33;10.50;;;6.60;;
65871;SDS011;52653;50.080;21.992;2023-07-20T05:04:19;9.30;;;6.60;;
65871;SDS011;52653;50.080;21.992;2023-07-20T05:07:12;11.20;;;6.80;;
65871;SDS011;52653;50.080;21.992;2023-07-20T05:10:06;12.40;;;7.00;;
65871;SDS011;52653;50.080;21.992;2023-07-20T05:13:00;11.50;;;7.00;;
65871;SDS011;52653;50.080;21.992;2023-07-20T05:15:42;11.90;;;6.40;;
65871;SDS011;52653;50.080;21.992;2023-07-20T05:18:27;10.30;;;6.70;;
65871;SDS011;52653;50.080;21.992;2023-07-20T05:21:06;10.80;;;7.20;;
65871;SDS011;52653;50.080;21.992;2023-07-20T05:23:59;11.20;;;6.70;;
65871;SDS011;52653;50.080;21.992;2023-07-20T05:26:52;9.80;;;6.70;;
65871;SDS011;52653;50.080;21.992;2023-07-20T05:29:45;9.40;;;6.60;;
65871;SDS011;52653;50.080;21.992;2023-07-20T05:32:38;10.70;;;6.60;;
65871;SDS011;52653;50.080;21.992;2023-07-20T05:35:25;9.70;;;7.00;;
65871;SDS011;52653;50.080;21.992;2023-07-20T05:38:19;9.70;;;6.90;;
65871;SDS011;52653;50.080;21.992;2023-07-20T05:41:12;8.90;;;6.60;;
65871;SDS011;52653;50.080;21.992;2023-07-20T05:44:05;10.30;;;7.50;;
65871;SDS011;52653;50.080;21.992;2023-07-20T05:46:58;10.70;;;7.40;;
65871;SDS011;52653;50.080;21.992;2023-07-20T05:49:52;9.00;;;6.90;;
65871;SDS011;52653;50.080;21.992;2023-07-20T05:52:36;8.50;;;6.40;;
65871;SDS011;52653;50.080;21.992;2023-07-20T05:55:31;10.00;;;7.00;;
65871;SDS011;52653;50.080;21.992;2023-07-20T05:58:13;9.70;;;7.00;;
65871;SDS011;52653;50.080;21.992;2023-07-20T06:01:05;10.60;;;8.00;;
65871;SDS011;52653;50.080;21.992;2023-07-20T06:03:58;9.60;;;7.50;;
65871;SDS011;52653;50.080;21.992;2023-07-20T06:06:53;9.70;;;7.30;;
65871;SDS011;52653;50.080;21.992;2023-07-20T06:09:46;10.20;;;8.20;;
65871;SDS011;52653;50.080;21.992;2023-07-20T06:12:38;12.90;;;8.50;;
65871;SDS011;52653;50.080;21.992;2023-07-20T06:15:32;11.00;;;7.50;;
65871;SDS011;52653;50.080;21.992;2023-07-20T06:18:25;10.60;;;7.60;;
65871;SDS011;52653;50.080;21.992;2023-07-20T06:21:19;10.90;;;7.10;;
65871;SDS011;52653;50.080;21.992;2023-07-20T06:24:12;8.90;;;7.00;;
65871;SDS011;52653;50.080;21.992;2023-07-20T06:27:06;10.10;;;7.50;;
65871;SDS011;52653;50.080;21.992;2023-07-20T06:29:59;9.90;;;7.40;;
65871;SDS011;52653;50.080;21.992;2023-07-20T06:32:44;10.90;;;7.70;;
65871;SDS011;52653;50.080;21.992;2023-07-20T06:35:26;11.00;;;7.50;;
65871;SDS011;52653;50.080;21.992;2023-07-20T06:38:10;11.40;;;6.90;;
65871;SDS011;52653;50.080;21.992;2023-07-20T06:41:13;10.20;;;7.40;;
65871;SDS011;52653;50.080;21.992;2023-07-20T06:44:09;10.50;;;7.20;;
65871;SDS011;52653;50.080;21.992;2023-07-20T06:46:47;12.20;;;6.90;;
65871;SDS011;52653;50.080;21.992;2023-07-20T06:49:30;10.30;;;7.10;;
65871;SDS011;52653;50.080;21.992;2023-07-20T06:52:09;12.90;;;7.20;;
65871;SDS011;52653;50.080;21.992;2023-07-20T06:54:56;9.30;;;6.80;;
65871;SDS011;52653;50.080;21.992;2023-07-20T06:57:53;9.70;;;7.00;;
65871;SDS011;52653;50.080;21.992;2023-07-20T07:00:48;11.70;;;7.50;;
65871;SDS011;52653;50.080;21.992;2023-07-20T07:03:34;9.00;;;6.90;;
65871;SDS011;52653;50.080;21.992;2023-07-20T07:06:17;10.10;;;7.10;;
65871;SDS011;52653;50.080;21.992;2023-07-20T07:09:12;11.90;;;7.70;;
65871;SDS011;52653;50.080;21.992;2023-07-20T07:11:59;11.80;;;7.20;;
65871;SDS011;52653;50.080;21.992;2023-07-20T07:14:44;12.00;;;7.80;;
65871;SDS011;52653;50.080;21.992;2023-07-20T07:17:37;9.60;;;7.30;;
65871;SDS011;52653;50.080;21.992;2023-07-20T07:20:21;10.70;;;7.90;;
65871;SDS011;52653;50.080;21.992;2023-07-20T07:23:16;10.30;;;7.70;;
65871;SDS011;52653;50.080;21.992;2023-07-20T07:26:10;9.10;;;7.50;;
65871;SDS011;52653;50.080;21.992;2023-07-20T07:29:03;9.20;;;7.40;;
65871;SDS011;52653;50.080;21.992;2023-07-20T07:31:36;9.70;;;8.10;;
65871;SDS011;52653;50.080;21.992;2023-07-20T07:34:20;11.20;;;8.30;;
65871;SDS011;52653;50.080;21.992;2023-07-20T07:37:06;9.40;;;7.40;;
65871;SDS011;52653;50.080;21.992;2023-07-20T07:40:00;13.20;;;8.20;;
65871;SDS011;52653;50.080;21.992;2023-07-20T07:42:55;12.20;;;8.40;;
65871;SDS011;52653;50.080;21.992;2023-07-20T07:45:40;10.90;;;8.20;;
65871;SDS011;52653;50.080;21.992;2023-07-20T07:48:33;11.10;;;8.60;;
65871;SDS011;52653;50.080;21.992;2023-07-20T07:51:21;11.50;;;8.20;;
65871;SDS011;52653;50.080;21.992;2023-07-20T07:54:14;12.50;;;8.10;;
65871;SDS011;52653;50.080;21.992;2023-07-20T07:57:07;12.10;;;8.40;;
65871;SDS011;52653;50.080;21.992;2023-07-20T07:59:45;11.90;;;8.50;;
65871;SDS011;52653;50.080;21.992;2023-07-20T08:02:39;9.80;;;8.20;;
65871;SDS011;52653;50.080;21.992;2023-07-20T08:05:15;12.10;;;9.00;;
65871;SDS011;52653;50.080;21.992;2023-07-20T08:08:02;10.60;;;7.80;;
65871;SDS011;52653;50.080;21.992;2023-07-20T08:10:54;9.30;;;7.30;;
65871;SDS011;52653;50.080;21.992;2023-07-20T08:13:47;9.50;;;7.30;;
65871;SDS011;52653;50.080;21.992;2023-07-20T08:16:39;9.60;;;7.70;;
65871;SDS011;52653;50.080;21.992;2023-07-20T08:19:33;11.60;;;8.20;;
65871;SDS011;52653;50.080;21.992;2023-07-20T08:22:12;9.30;;;7.60;;
65871;SDS011;52653;50.080;21.992;2023-07-20T08:25:08;10.10;;;7.70;;
65871;SDS011;52653;50.080;21.992;2023-07-20T08:27:45;9.00;;;7.40;;
65871;SDS011;52653;50.080;21.992;2023-07-20T08:30:23;10.70;;;8.00;;
65871;SDS011;52653;50.080;21.992;2023-07-20T08:33:16;10.60;;;7.80;;
65871;SDS011;52653;50.080;21.992;2023-07-20T08:36:00;11.50;;;7.70;;
65871;SDS011;52653;50.080;21.992;2023-07-20T08:39:00;11.90;;;7.40;;
65871;SDS011;52653;50.080;21.992;2023-07-20T08:41:46;10.40;;;6.90;;
65871;SDS011;52653;50.080;21.992;2023-07-20T08:44:19;11.50;;;7.40;;
65871;SDS011;52653;50.080;21.992;2023-07-20T08:46:59;11.50;;;7.50;;
65871;SDS011;52653;50.080;21.992;2023-07-20T08:49:33;10.80;;;7.70;;
65871;SDS011;52653;50.080;21.992;2023-07-20T08:52:25;10.30;;;6.90;;
65871;SDS011;52653;50.080;21.992;2023-07-20T08:55:19;8.90;;;7.20;;
65871;SDS011;52653;50.080;21.992;2023-07-20T08:58:08;9.90;;;7.10;;
65871;SDS011;52653;50.080;21.992;2023-07-20T09:01:04;9.70;;;6.70;;
65871;SDS011;52653;50.080;21.992;2023-07-20T09:03:58;10.10;;;7.10;;
65871;SDS011;52653;50.080;21.992;2023-07-20T09:06:36;8.20;;;6.30;;
65871;SDS011;52653;50.080;21.992;2023-07-20T09:09:34;9.50;;;6.70;;
65871;SDS011;52653;50.080;21.992;2023-07-20T09:12:14;8.00;;;6.00;;
65871;SDS011;52653;50.080;21.992;2023-07-20T09:17:33;8.20;;;5.40;;
65871;SDS011;52653;50.080;21.992;2023-07-20T09:20:07;15.10;;;6.60;;
65871;SDS011;52653;50.080;21.992;2023-07-20T09:23:01;8.30;;;5.60;;
65871;SDS011;52653;50.080;21.992;2023-07-20T09:25:37;9.80;;;6.00;;
65871;SDS011;52653;50.080;21.992;2023-07-20T09:28:14;7.60;;;5.30;;
65871;SDS011;52653;50.080;21.992;2023-07-20T09:30:50;6.90;;;5.00;;
65871;SDS011;52653;50.080;21.992;2023-07-20T09:36:04;6.70;;;4.70;;
65871;SDS011;52653;50.080;21.992;2023-07-20T09:38:58;8.00;;;5.10;;
65871;SDS011;52653;50.080;21.992;2023-07-20T09:41:43;12.20;;;5.80;;
65871;SDS011;52653;50.080;21.992;2023-07-20T09:44:30;10.30;;;5.40;;
65871;SDS011;52653;50.080;21.992;2023-07-20T09:47:26;9.20;;;5.50;;
65871;SDS011;52653;50.080;21.992;2023-07-20T09:50:10;7.00;;;5.10;;
65871;SDS011;52653;50.080;21.992;2023-07-20T09:53:06;6.70;;;4.80;;
65871;SDS011;52653;50.080;21.992;2023-07-20T09:56:01;6.80;;;5.10;;
65871;SDS011;52653;50.080;21.992;2023-07-20T09:58:42;7.00;;;4.90;;
65871;SDS011;52653;50.080;21.992;2023-07-20T10:01:16;9.10;;;4.80;;
65871;SDS011;52653;50.080;21.992;2023-07-20T10:03:54;7.10;;;4.80;;
65871;SDS011;52653;50.080;21.992;2023-07-20T10:06:51;7.50;;;5.30;;
65871;SDS011;52653;50.080;21.992;2023-07-20T10:09:46;6.70;;;5.10;;
65871;SDS011;52653;50.080;21.992;2023-07-20T10:12:33;7.30;;;5.00;;
65871;SDS011;52653;50.080;21.992;2023-07-20T10:15:24;6.20;;;4.40;;
65871;SDS011;52653;50.080;21.992;2023-07-20T10:18:21;7.00;;;4.30;;
65871;SDS011;52653;50.080;21.992;2023-07-20T10:21:10;6.80;;;4.20;;
65871;SDS011;52653;50.080;21.992;2023-07-20T10:24:01;6.40;;;4.20;;
65871;SDS011;52653;50.080;21.992;2023-07-20T10:26:46;7.00;;;4.40;;
65871;SDS011;52653;50.080;21.992;2023-07-20T10:29:39;5.90;;;4.30;;
65871;SDS011;52653;50.080;21.992;2023-07-20T10:32:33;6.40;;;4.10;;
65871;SDS011;52653;50.080;21.992;2023-07-20T10:35:27;7.40;;;4.30;;
65871;SDS011;52653;50.080;21.992;2023-07-20T10:38:13;5.40;;;4.10;;
65871;SDS011;52653;50.080;21.992;2023-07-20T10:40:56;6.50;;;3.70;;
65871;SDS011;52653;50.080;21.992;2023-07-20T10:43:30;6.70;;;3.70;;
65871;SDS011;52653;50.080;21.992;2023-07-20T10:46:41;6.80;;;3.40;;
65871;SDS011;52653;50.080;21.992;2023-07-20T10:49:39;6.80;;;3.50;;
65871;SDS011;52653;50.080;21.992;2023-07-20T10:52:38;6.70;;;3.80;;
65871;SDS011;52653;50.080;21.992;2023-07-20T10:55:32;6.30;;;4.10;;
65871;SDS011;52653;50.080;21.992;2023-07-20T10:58:14;6.10;;;3.90;;
65871;SDS011;52653;50.080;21.992;2023-07-20T11:01:16;7.00;;;4.00;;
65871;SDS011;52653;50.080;21.992;2023-07-20T11:03:57;5.70;;;3.80;;
65871;SDS011;52653;50.080;21.992;2023-07-20T11:06:32;6.70;;;4.20;;
65871;SDS011;52653;50.080;21.992;2023-07-20T11:09:15;4.80;;;3.80;;
65871;SDS011;52653;50.080;21.992;2023-07-20T11:12:09;5.40;;;3.70;;
65871;SDS011;52653;50.080;21.992;2023-07-20T11:14:52;5.40;;;3.90;;
65871;SDS011;52653;50.080;21.992;2023-07-20T11:17:30;5.40;;;4.10;;
65871;SDS011;52653;50.080;21.992;2023-07-20T11:20:23;7.30;;;4.30;;
65871;SDS011;52653;50.080;21.992;2023-07-20T11:23:17;6.10;;;3.80;;
65871;SDS011;52653;50.080;21.992;2023-07-20T11:26:00;5.30;;;3.70;;
65871;SDS011;52653;50.080;21.992;2023-07-20T11:28:35;6.40;;;3.60;;
65871;SDS011;52653;50.080;21.992;2023-07-20T11:31:08;6.50;;;3.80;;
65871;SDS011;52653;50.080;21.992;2023-07-20T11:33:49;5.70;;;3.50;;
65871;SDS011;52653;50.080;21.992;2023-07-20T11:36:43;6.90;;;3.70;;
65871;SDS011;52653;50.080;21.992;2023-07-20T11:39:39;4.90;;;3.20;;
65871;SDS011;52653;50.080;21.992;2023-07-20T11:42:44;5.60;;;2.80;;
65871;SDS011;52653;50.080;21.992;2023-07-20T11:45:44;4.30;;;2.70;;
65871;SDS011;52653;50.080;21.992;2023-07-20T11:48:20;5.60;;;2.30;;
65871;SDS011;52653;50.080;21.992;2023-07-20T11:51:16;4.90;;;2.50;;
65871;SDS011;52653;50.080;21.992;2023-07-20T11:53:53;4.60;;;2.50;;
65871;SDS011;52653;50.080;21.992;2023-07-20T11:56:36;4.80;;;2.40;;
65871;SDS011;52653;50.080;21.992;2023-07-20T11:59:21;4.10;;;2.40;;
65871;SDS011;52653;50.080;21.992;2023-07-20T12:01:54;4.50;;;2.00;;
65871;SDS011;52653;50.080;21.992;2023-07-20T12:04:32;5.80;;;2.40;;
65871;SDS011;52653;50.080;21.992;2023-07-20T12:07:08;4.20;;;2.40;;
65871;SDS011;52653;50.080;21.992;2023-07-20T12:09:41;3.20;;;2.00;;
65871;SDS011;52653;50.080;21.992;2023-07-20T12:12:22;3.50;;;2.10;;
65871;SDS011;52653;50.080;21.992;2023-07-20T12:15:14;4.60;;;2.00;;
65871;SDS011;52653;50.080;21.992;2023-07-20T12:18:00;5.90;;;3.30;;
65871;SDS011;52653;50.080;21.992;2023-07-20T12:20:36;4.60;;;1.90;;
65871;SDS011;52653;50.080;21.992;2023-07-20T12:23:10;4.70;;;1.80;;
65871;SDS011;52653;50.080;21.992;2023-07-20T12:25:46;3.60;;;1.30;;
65871;SDS011;52653;50.080;21.992;2023-07-20T12:28:24;3.70;;;1.60;;
65871;SDS011;52653;50.080;21.992;2023-07-20T12:31:00;2.90;;;1.50;;
65871;SDS011;52653;50.080;21.992;2023-07-20T12:33:36;3.50;;;1.70;;
65871;SDS011;52653;50.080;21.992;2023-07-20T12:36:12;3.70;;;1.90;;
65871;SDS011;52653;50.080;21.992;2023-07-20T12:38:55;3.40;;;1.70;;
65871;SDS011;52653;50.080;21.992;2023-07-20T12:41:30;3.50;;;1.60;;
65871;SDS011;52653;50.080;21.992;2023-07-20T12:44:03;3.00;;;1.70;;
65871;SDS011;52653;50.080;21.992;2023-07-20T12:46:39;3.40;;;1.80;;
65871;SDS011;52653;50.080;21.992;2023-07-20T12:49:12;3.90;;;2.00;;
65871;SDS011;52653;50.080;21.992;2023-07-20T12:51:45;4.30;;;1.90;;
65871;SDS011;52653;50.080;21.992;2023-07-20T12:54:18;3.10;;;1.70;;
65871;SDS011;52653;50.080;21.992;2023-07-20T12:56:53;3.60;;;1.60;;
65871;SDS011;52653;50.080;21.992;2023-07-20T12:59:31;2.50;;;1.40;;
65871;SDS011;52653;50.080;21.992;2023-07-20T13:02:04;4.20;;;1.90;;
65871;SDS011;52653;50.080;21.992;2023-07-20T13:04:49;3.90;;;1.90;;
65871;SDS011;52653;50.080;21.992;2023-07-20T13:07:33;4.20;;;1.90;;
65871;SDS011;52653;50.080;21.992;2023-07-20T13:12:50;2.30;;;1.40;;
65871;SDS011;52653;50.080;21.992;2023-07-20T13:15:44;3.40;;;1.70;;
65871;SDS011;52653;50.080;21.992;2023-07-20T13:18:25;3.60;;;1.90;;
65871;SDS011;52653;50.080;21.992;2023-07-20T13:21:03;3.80;;;1.70;;
65871;SDS011;52653;50.080;21.992;2023-07-20T13:23:40;4.10;;;1.80;;
65871;SDS011;52653;50.080;21.992;2023-07-20T13:26:33;2.70;;;1.60;;
65871;SDS011;52653;50.080;21.992;2023-07-20T13:29:06;3.60;;;1.80;;
65871;SDS011;52653;50.080;21.992;2023-07-20T13:31:49;5.30;;;2.00;;
65871;SDS011;52653;50.080;21.992;2023-07-20T13:34:24;3.60;;;1.70;;
65871;SDS011;52653;50.080;21.992;2023-07-20T13:37:21;2.60;;;1.70;;
65871;SDS011;52653;50.080;21.992;2023-07-20T13:40:06;4.40;;;1.90;;
65871;SDS011;52653;50.080;21.992;2023-07-20T13:42:41;3.00;;;1.50;;
65871;SDS011;52653;50.080;21.992;2023-07-20T13:45:18;2.90;;;2.10;;
65871;SDS011;52653;50.080;21.992;2023-07-20T13:48:12;3.30;;;1.90;;
65871;SDS011;52653;50.080;21.992;2023-07-20T13:51:08;4.50;;;1.90;;
65871;SDS011;52653;50.080;21.992;2023-07-20T13:54:01;2.90;;;1.70;;
65871;SDS011;52653;50.080;21.992;2023-07-20T13:56:37;3.40;;;1.80;;
65871;SDS011;52653;50.080;21.992;2023-07-20T13:59:13;3.90;;;1.90;;
65871;SDS011;52653;50.080;21.992;2023-07-20T14:01:46;3.50;;;1.90;;
65871;SDS011;52653;50.080;21.992;2023-07-20T14:04:19;4.70;;;1.80;;
65871;SDS011;52653;50.080;21.992;2023-07-20T14:06:52;3.20;;;1.70;;
65871;SDS011;52653;50.080;21.992;2023-07-20T14:09:25;3.50;;;2.00;;
65871;SDS011;52653;50.080;21.992;2023-07-20T14:12:00;2.90;;;1.50;;
65871;SDS011;52653;50.080;21.992;2023-07-20T14:14:36;6.60;;;2.00;;
65871;SDS011;52653;50.080;21.992;2023-07-20T14:17:11;4.10;;;2.00;;
65871;SDS011;52653;50.080;21.992;2023-07-20T14:19:47;6.80;;;1.90;;
65871;SDS011;52653;50.080;21.992;2023-07-20T14:22:21;4.10;;;2.00;;
65871;SDS011;52653;50.080;21.992;2023-07-20T14:24:55;4.10;;;2.00;;
65871;SDS011;52653;50.080;21.992;2023-07-20T14:27:28;3.30;;;1.60;;
65871;SDS011;52653;50.080;21.992;2023-07-20T14:30:01;2.60;;;1.60;;
65871;SDS011;52653;50.080;21.992;2023-07-20T14:32:54;2.60;;;1.80;;
65871;SDS011;52653;50.080;21.992;2023-07-20T14:35:27;4.00;;;2.00;;
65871;SDS011;52653;50.080;21.992;2023-07-20T14:38:05;4.50;;;2.30;;
65871;SDS011;52653;50.080;21.992;2023-07-20T14:40:40;4.90;;;2.40;;
65871;SDS011;52653;50.080;21.992;2023-07-20T14:43:14;3.60;;;2.00;;
65871;SDS011;52653;50.080;21.992;2023-07-20T14:45:47;4.40;;;2.60;;
65871;SDS011;52653;50.080;21.992;2023-07-20T14:48:22;3.90;;;2.10;;
65871;SDS011;52653;50.080;21.992;2023-07-20T14:50:55;6.10;;;2.00;;
65871;SDS011;52653;50.080;21.992;2023-07-20T14:53:33;3.00;;;1.70;;
65871;SDS011;52653;50.080;21.992;2023-07-20T14:56:09;3.80;;;1.90;;
65871;SDS011;52653;50.080;21.992;2023-07-20T14:58:45;3.50;;;1.70;;
65871;SDS011;52653;50.080;21.992;2023-07-20T15:01:20;4.50;;;1.90;;
65871;SDS011;52653;50.080;21.992;2023-07-20T15:03:53;3.50;;;1.70;;
65871;SDS011;52653;50.080;21.992;2023-07-20T15:06:28;4.20;;;1.60;;
65871;SDS011;52653;50.080;21.992;2023-07-20T15:09:01;4.00;;;1.90;;
65871;SDS011;52653;50.080;21.992;2023-07-20T15:11:35;4.10;;;1.80;;
65871;SDS011;52653;50.080;21.992;2023-07-20T15:14:08;5.10;;;2.20;;
65871;SDS011;52653;50.080;21.992;2023-07-20T15:16:44;4.00;;;2.10;;
65871;SDS011;52653;50.080;21.992;2023-07-20T15:19:40;5.40;;;2.20;;
65871;SDS011;52653;50.080;21.992;2023-07-20T15:22:12;4.10;;;2.00;;
65871;SDS011;52653;50.080;21.992;2023-07-20T15:24:45;3.50;;;2.00;;
65871;SDS011;52653;50.080;21.992;2023-07-20T15:27:20;5.50;;;2.20;;
65871;SDS011;52653;50.080;21.992;2023-07-20T15:29:56;4.70;;;2.00;;
65871;SDS011;52653;50.080;21.992;2023-07-20T15:32:29;4.40;;;1.90;;
65871;SDS011;52653;50.080;21.992;2023-07-20T15:35:29;3.70;;;2.20;;
65871;SDS011;52653;50.080;21.992;2023-07-20T15:38:01;3.90;;;2.10;;
65871;SDS011;52653;50.080;21.992;2023-07-20T15:40:34;3.60;;;2.10;;
65871;SDS011;52653;50.080;21.992;2023-07-20T15:43:07;3.30;;;2.00;;
65871;SDS011;52653;50.080;21.992;2023-07-20T15:45:47;3.10;;;1.90;;
65871;SDS011;52653;50.080;21.992;2023-07-20T15:48:21;4.30;;;1.90;;
65871;SDS011;52653;50.080;21.992;2023-07-20T15:50:53;3.90;;;2.10;;
65871;SDS011;52653;50.080;21.992;2023-07-20T15:53:26;5.00;;;2.10;;
65871;SDS011;52653;50.080;21.992;2023-07-20T15:55:59;3.20;;;2.10;;
65871;SDS011;52653;50.080;21.992;2023-07-20T15:58:32;4.30;;;2.50;;
65871;SDS011;52653;50.080;21.992;2023-07-20T16:01:07;6.70;;;2.20;;
65871;SDS011;52653;50.080;21.992;2023-07-20T16:03:40;4.10;;;2.10;;
65871;SDS011;52653;50.080;21.992;2023-07-20T16:06:13;4.30;;;2.30;;
65871;SDS011;52653;50.080;21.992;2023-07-20T16:08:47;4.20;;;2.30;;
65871;SDS011;52653;50.080;21.992;2023-07-20T16:11:20;4.50;;;2.40;;
65871;SDS011;52653;50.080;21.992;2023-07-20T16:13:56;4.50;;;2.50;;
65871;SDS011;52653;50.080;21.992;2023-07-20T16:16:31;4.30;;;2.40;;
65871;SDS011;52653;50.080;21.992;2023-07-20T16:19:04;3.50;;;2.40;;
65871;SDS011;52653;50.080;21.992;2023-07-20T16:21:38;5.00;;;2.50;;
65871;SDS011;52653;50.080;21.992;2023-07-20T16:24:11;4.70;;;2.40;;
65871;SDS011;52653;50.080;21.992;2023-07-20T16:26:46;4.40;;;2.40;;